sim
Sign-in with your pilot id or email,
or register
Callsign
Passwort

Schedule Details

Flight Number: DLH1947 (2)
Departure: Genoa Cristoforo Colombo Airport (LIMJ) at 07:25
Arrival: Munich Airport (EDDM) at 08:40
Route: Lufthansa Passenger Schedule. Enter filed route here before submitting Pirep.

Weather Information
Getting current METAR information for LIMJ 281120Z 14008KT 9999 SCT030 19/11 Q1008
Getting current METAR information for EDDM 281120Z 27005KT 9999 FEW007 BKN043 09/07 Q1011 NOSIG

Schedule Frequency

Route Map